KBJJ/BJJ METAR and TAF weather

Enter ICAO airport designator
Station Type Date Time Source
KBJJ METAR 2021/04/13 22:56 UTC NOAA

KBJJ 132256Z AUTO 30008KT 10SM CLR 16/04 A3006 RMK AO2 SLP181 T01610044


Station Type Date Time Source
KBJJ Decoded METAR 2021/04/13 22:56 UTC NOAA

WOOSTER WAYNE COUNTY AIRPORT, OH, United States (KBJJ) 40-52N 81-53W 343M
Apr 13, 2021 - 06:56 PM EDT / 2021.04.13 2256 UTC
Wind: from the WNW (300 degrees) at 9 MPH (8 KT):0
Visibility: 10 mile(s):0
Sky conditions: clear
Temperature: 61.0 F (16.1 C)
Dew Point: 39.9 F (4.4 C)
Relative Humidity: 45%
Pressure (altimeter): 30.06 in. Hg (1017 hPa)
ob: KBJJ 132256Z AUTO 30008KT 10SM CLR 16/04 A3006 RMK AO2 SLP181 T01610044
cycle: 23

Station Type Date Time Source
KBJJ TAF UTC NOAA

Error!

Example: see airport list